createdAt,value
2017-12-16T00:00:59.029Z,8.40
2017-12-16T00:03:27.693Z,7.10
2017-12-16T00:05:56.863Z,6.80
2017-12-16T00:08:25.968Z,6.85
2017-12-16T00:10:55.073Z,6.30
2017-12-16T00:13:25.410Z,6.47
2017-12-16T00:15:54.862Z,8.18
2017-12-16T00:18:23.166Z,6.22
2017-12-16T00:20:52.619Z,7.62
2017-12-16T00:23:21.402Z,7.62
2017-12-16T00:25:50.077Z,6.43
2017-12-16T00:28:18.097Z,7.40
2017-12-16T00:30:46.701Z,7.20
2017-12-16T00:33:15.350Z,7.68
2017-12-16T00:35:43.689Z,7.18
2017-12-16T00:38:12.827Z,8.07
2017-12-16T00:40:41.519Z,7.35
2017-12-16T00:43:09.842Z,7.60
2017-12-16T00:45:38.521Z,8.02
2017-12-16T00:48:08.471Z,6.75
2017-12-16T00:50:37.136Z,6.95
2017-12-16T00:53:05.797Z,7.43
2017-12-16T00:55:34.130Z,6.93
2017-12-16T00:58:02.785Z,6.55
2017-12-16T01:00:32.225Z,6.22
2017-12-16T01:03:00.542Z,6.95
2017-12-16T01:05:29.467Z,7.37
2017-12-16T01:07:57.803Z,7.30
2017-12-16T01:10:26.475Z,6.57
2017-12-16T01:12:54.807Z,6.45
2017-12-16T01:15:23.488Z,6.97
2017-12-16T01:17:52.598Z,7.45
2017-12-16T01:20:22.233Z,7.47
2017-12-16T01:22:50.894Z,6.68
2017-12-16T01:25:19.559Z,6.50
2017-12-16T01:27:48.648Z,6.65
2017-12-16T01:30:17.762Z,7.37
2017-12-16T01:32:47.191Z,6.75
2017-12-16T01:35:27.635Z,6.40
2017-12-16T01:38:07.469Z,8.43
2017-12-16T01:40:36.240Z,7.18
2017-12-16T01:43:04.233Z,6.40
2017-12-16T01:45:33.975Z,7.07
2017-12-16T01:48:02.635Z,7.15
2017-12-16T01:50:31.970Z,6.57
2017-12-16T01:52:59.959Z,7.00
2017-12-16T01:55:28.017Z,7.85
2017-12-16T01:57:56.014Z,7.32
2017-12-16T02:00:24.022Z,8.40
2017-12-16T02:02:52.782Z,7.12
2017-12-16T02:05:21.125Z,7.87
2017-12-16T02:07:49.322Z,7.35
2017-12-16T02:10:17.664Z,8.90
2017-12-16T02:12:45.696Z,8.40
2017-12-16T02:15:14.038Z,8.60
2017-12-16T02:17:42.045Z,9.45
2017-12-16T02:20:10.839Z,9.90
2017-12-16T02:22:39.610Z,8.68
2017-12-16T02:25:07.622Z,9.60
2017-12-16T02:27:35.641Z,9.70
2017-12-16T02:30:03.647Z,11.40
2017-12-16T02:32:32.442Z,10.88
2017-12-16T02:35:00.450Z,12.55
2017-12-16T02:37:28.474Z,14.02
2017-12-16T02:39:57.249Z,11.98
2017-12-16T02:42:25.282Z,13.23
2017-12-16T02:44:53.302Z,11.85
2017-12-16T02:47:22.094Z,11.95
2017-12-16T02:49:50.865Z,11.55
2017-12-16T02:52:18.897Z,13.55
2017-12-16T02:54:46.905Z,12.07
2017-12-16T02:57:14.938Z,13.07
2017-12-16T02:59:42.946Z,14.02
2017-12-16T03:02:10.971Z,12.70
2017-12-16T03:04:38.982Z,14.68
2017-12-16T03:07:07.009Z,12.93
2017-12-16T03:09:35.350Z,13.70
2017-12-16T03:12:04.146Z,13.88
2017-12-16T03:14:32.930Z,15.40
2017-12-16T03:17:00.961Z,14.52
2017-12-16T03:19:28.970Z,13.43
2017-12-16T03:21:57.886Z,11.80
2017-12-16T03:24:25.903Z,13.27
2017-12-16T03:26:53.929Z,13.48
2017-12-16T03:29:21.946Z,14.38
2017-12-16T03:31:49.977Z,14.02
2017-12-16T03:34:18.007Z,13.00
2017-12-16T03:36:46.046Z,12.40
2017-12-16T03:39:14.057Z,11.55
2017-12-16T03:41:42.072Z,13.30
2017-12-16T03:44:10.093Z,13.48
2017-12-16T03:46:38.114Z,12.00
2017-12-16T03:49:06.157Z,14.25
2017-12-16T03:51:34.935Z,14.00
2017-12-16T03:54:02.937Z,13.48
2017-12-16T03:56:30.975Z,13.38
2017-12-16T03:58:58.981Z,13.40
2017-12-16T04:01:27.349Z,11.10
2017-12-16T04:03:55.689Z,11.52
2017-12-16T04:06:23.699Z,11.05
2017-12-16T04:08:51.728Z,11.82
2017-12-16T04:11:20.407Z,11.07
2017-12-16T04:13:48.433Z,9.73
2017-12-16T04:16:16.442Z,10.45
2017-12-16T04:18:44.507Z,11.73
2017-12-16T04:21:13.149Z,11.70
2017-12-16T04:23:41.926Z,11.50
2017-12-16T04:26:09.975Z,11.25
2017-12-16T04:28:37.975Z,9.68
2017-12-16T04:31:06.753Z,11.00
2017-12-16T04:33:34.777Z,10.68
2017-12-16T04:36:03.559Z,11.63
2017-12-16T04:38:31.594Z,11.00
2017-12-16T04:41:00.383Z,10.18
2017-12-16T04:43:29.159Z,9.85
2017-12-16T04:45:57.196Z,11.07
2017-12-16T04:48:25.206Z,10.95
2017-12-16T04:50:53.246Z,11.10
2017-12-16T04:53:21.251Z,9.80
2017-12-16T04:55:49.256Z,10.48
2017-12-16T04:58:17.285Z,11.43
2017-12-16T05:00:45.294Z,10.32
2017-12-16T05:03:13.326Z,11.05
2017-12-16T05:05:41.334Z,10.75
2017-12-16T05:08:09.347Z,10.75
2017-12-16T05:10:37.373Z,11.43
2017-12-16T05:13:05.391Z,10.40
2017-12-16T05:15:33.771Z,11.12
2017-12-16T05:18:01.777Z,12.35
2017-12-16T05:20:30.554Z,10.15
2017-12-16T05:22:58.579Z,11.25
2017-12-16T05:25:26.606Z,11.38
2017-12-16T05:27:55.729Z,10.80
2017-12-16T05:30:24.502Z,10.10
2017-12-16T05:32:53.270Z,9.90
2017-12-16T05:35:21.321Z,10.85
2017-12-16T05:37:49.331Z,10.25
2017-12-16T05:40:18.142Z,11.02
2017-12-16T05:42:46.159Z,10.68
2017-12-16T05:45:14.174Z,10.60
2017-12-16T05:47:42.961Z,10.75
2017-12-16T05:50:11.737Z,11.02
2017-12-16T05:52:40.548Z,10.75
2017-12-16T05:55:08.570Z,11.52
2017-12-16T05:57:36.576Z,10.25
2017-12-16T06:00:05.378Z,10.38
2017-12-16T06:02:33.389Z,10.77
2017-12-16T06:05:01.426Z,11.48
2017-12-16T06:07:29.432Z,10.82
2017-12-16T06:09:57.455Z,11.30
2017-12-16T06:12:26.251Z,10.82
2017-12-16T06:14:55.271Z,11.45
2017-12-16T06:17:23.312Z,11.00
2017-12-16T06:19:52.458Z,12.32
2017-12-16T06:22:20.476Z,11.15
2017-12-16T06:24:49.274Z,12.25
2017-12-16T06:27:18.425Z,11.80
2017-12-16T06:29:46.850Z,12.25
2017-12-16T06:32:15.958Z,12.30
2017-12-16T06:34:43.970Z,13.20
2017-12-16T06:37:12.002Z,12.90
2017-12-16T06:39:40.474Z,13.60
2017-12-16T06:42:09.094Z,14.00
2017-12-16T06:44:37.440Z,12.80
2017-12-16T06:47:05.461Z,12.40
2017-12-16T06:49:33.485Z,14.35
2017-12-16T06:52:01.505Z,13.43
2017-12-16T06:54:29.875Z,13.95
2017-12-16T06:56:57.885Z,14.60
2017-12-16T06:59:26.681Z,14.13
2017-12-16T07:01:55.831Z,12.80
2017-12-16T07:04:23.863Z,14.38
2017-12-16T07:06:51.912Z,15.10
2017-12-16T07:09:19.938Z,14.25
2017-12-16T07:11:47.934Z,13.93
2017-12-16T07:14:15.974Z,15.70
2017-12-16T07:16:44.000Z,14.50
2017-12-16T07:19:12.046Z,16.00
2017-12-16T07:21:40.935Z,15.88
2017-12-16T07:24:08.941Z,15.70
2017-12-16T07:26:37.732Z,14.90
2017-12-16T07:29:06.503Z,15.52
2017-12-16T07:31:34.583Z,16.42
2017-12-16T07:34:02.646Z,17.37
2017-12-16T07:36:30.654Z,16.95
2017-12-16T07:39:00.302Z,18.10
2017-12-16T07:41:28.638Z,15.30
2017-12-16T07:43:58.730Z,18.50
2017-12-16T07:46:27.405Z,17.08
2017-12-16T07:48:55.738Z,19.12
2017-12-16T07:51:24.413Z,17.45
2017-12-16T07:53:53.090Z,16.40
2017-12-16T07:56:22.230Z,18.48
2017-12-16T07:58:50.898Z,18.40
2017-12-16T08:01:18.898Z,18.08
2017-12-16T08:03:47.283Z,18.02
2017-12-16T08:06:15.635Z,18.77
2017-12-16T08:11:37.215Z,18.52
2017-12-16T08:14:05.586Z,17.40
2017-12-16T08:16:34.296Z,18.80
2017-12-16T08:19:02.969Z,17.48
2017-12-16T08:21:31.714Z,17.27
2017-12-16T08:24:02.020Z,19.77
2017-12-16T08:26:30.705Z,18.75
2017-12-16T08:28:59.404Z,19.30
2017-12-16T08:31:28.082Z,18.80
2017-12-16T08:33:56.745Z,18.95
2017-12-16T08:36:25.993Z,19.27
2017-12-16T08:38:54.660Z,21.02
2017-12-16T08:41:23.362Z,19.95
2017-12-16T08:43:52.054Z,20.60
2017-12-16T08:46:21.670Z,20.33
2017-12-16T08:48:50.371Z,22.00
2017-12-16T08:51:19.051Z,20.15
2017-12-16T08:53:47.750Z,20.70
2017-12-16T08:56:16.425Z,19.17
2017-12-16T08:58:45.096Z,20.15
2017-12-16T09:01:13.119Z,19.30
2017-12-16T09:03:41.138Z,21.40
2017-12-16T09:06:09.837Z,17.60
2017-12-16T09:08:38.509Z,18.30
2017-12-16T09:11:07.182Z,17.98
2017-12-16T09:13:35.868Z,18.20
2017-12-16T09:16:04.546Z,20.92
2017-12-16T09:18:34.011Z,18.92
2017-12-16T09:21:02.681Z,18.15
2017-12-16T09:23:31.346Z,18.58
2017-12-16T09:26:00.035Z,20.12
2017-12-16T09:28:28.717Z,20.20
2017-12-16T09:30:57.412Z,19.95
2017-12-16T09:33:26.094Z,19.40
2017-12-16T09:35:54.774Z,19.00
2017-12-16T09:38:23.470Z,18.90
2017-12-16T09:40:52.139Z,20.92
2017-12-16T09:43:20.912Z,20.33
2017-12-16T09:45:49.626Z,17.98
2017-12-16T09:48:19.976Z,19.20
2017-12-16T09:50:48.732Z,19.15
2017-12-16T09:53:31.747Z,18.67
2017-12-16T09:56:08.657Z,19.80
2017-12-16T10:04:29.426Z,17.67
2017-12-16T10:06:58.025Z,18.67
2017-12-16T10:09:26.383Z,17.77
2017-12-16T10:11:55.062Z,17.62
2017-12-16T10:14:23.761Z,17.92
2017-12-16T10:16:52.442Z,17.08
2017-12-16T10:19:21.137Z,17.33
2017-12-16T10:21:49.506Z,16.17
2017-12-16T10:24:18.189Z,17.67
2017-12-16T10:26:47.459Z,18.87
2017-12-16T10:29:15.823Z,18.67
2017-12-16T10:31:47.092Z,17.35
2017-12-16T10:34:33.334Z,19.92
2017-12-16T10:37:08.552Z,19.15
2017-12-16T10:39:37.222Z,18.55
2017-12-16T12:10:42.919Z,19.75
2017-12-16T12:13:11.611Z,20.80
2017-12-16T12:15:40.286Z,20.40
2017-12-16T12:18:08.977Z,20.70
2017-12-16T12:20:37.660Z,18.55
2017-12-16T12:23:06.969Z,21.35
2017-12-16T12:25:35.638Z,17.90
2017-12-16T12:28:04.333Z,17.70
2017-12-16T12:30:34.046Z,19.33
2017-12-16T12:33:02.730Z,17.83
2017-12-16T12:35:31.437Z,18.52
2017-12-16T12:38:00.130Z,16.65
2017-12-16T12:40:28.803Z,19.25
2017-12-16T12:42:57.486Z,17.70
2017-12-16T12:45:26.166Z,19.37
2017-12-16T12:47:54.861Z,17.08
2017-12-16T12:50:23.529Z,17.23
2017-12-16T12:52:58.723Z,19.45
2017-12-16T12:55:27.407Z,20.37
2017-12-16T12:57:56.086Z,20.25
2017-12-16T13:00:24.772Z,18.58
2017-12-16T13:02:53.437Z,18.02
2017-12-16T13:05:23.143Z,18.23
2017-12-16T13:07:51.679Z,18.00
2017-12-16T13:10:21.419Z,19.90
2017-12-16T13:12:50.379Z,18.95
2017-12-16T13:15:19.848Z,17.90
2017-12-16T13:17:48.551Z,17.30
2017-12-16T13:20:51.210Z,16.17
2017-12-16T13:23:46.870Z,14.93
2017-12-16T13:28:53.706Z,15.55
2017-12-16T13:34:18.799Z,15.70
2017-12-16T13:36:48.662Z,15.18
2017-12-16T13:42:03.834Z,14.18
2017-12-16T13:44:59.532Z,13.73
2017-12-16T13:52:07.397Z,14.98
2017-12-16T13:54:49.106Z,14.95
2017-12-16T13:57:18.137Z,14.93
2017-12-16T13:59:54.652Z,15.77
2017-12-16T14:02:24.026Z,16.10
2017-12-16T14:04:52.759Z,14.55
2017-12-16T14:07:22.610Z,14.80
2017-12-16T14:09:51.273Z,16.10
2017-12-16T14:12:20.203Z,21.73
2017-12-16T14:14:49.857Z,18.65
2017-12-16T14:17:21.330Z,15.93
2017-12-16T14:19:50.675Z,15.50
2017-12-16T14:22:21.115Z,16.20
2017-12-16T14:24:50.732Z,17.10
2017-12-16T14:27:20.512Z,16.65
2017-12-16T14:29:49.969Z,17.60
2017-12-16T14:32:18.653Z,17.15
2017-12-16T14:34:47.002Z,18.52
2017-12-16T14:37:15.946Z,17.98
2017-12-16T14:39:45.160Z,16.62
2017-12-16T14:42:13.650Z,17.90
2017-12-16T14:44:44.028Z,18.23
2017-12-16T14:47:13.041Z,20.73
2017-12-16T14:49:41.838Z,18.33
2017-12-16T14:52:10.522Z,17.77
2017-12-16T14:54:39.218Z,18.62
2017-12-16T14:57:07.904Z,18.92
2017-12-16T14:59:36.574Z,21.80
2017-12-16T15:02:05.871Z,17.75
2017-12-16T15:04:34.575Z,15.63
2017-12-16T15:07:04.999Z,18.52
2017-12-16T15:09:34.724Z,17.37
2017-12-16T15:12:03.394Z,19.98
2017-12-16T15:14:32.087Z,18.65
2017-12-16T15:17:00.752Z,16.77
2017-12-16T15:19:37.075Z,17.33
2017-12-16T15:22:06.322Z,18.30
2017-12-16T15:24:35.001Z,18.65
2017-12-16T15:30:14.178Z,17.87
2017-12-16T15:32:52.468Z,17.73
2017-12-16T15:35:22.115Z,17.98
2017-12-16T15:37:51.498Z,18.90
2017-12-16T15:40:19.966Z,19.05
2017-12-16T15:45:24.293Z,16.20
2017-12-16T15:47:53.498Z,16.23
2017-12-16T15:50:23.150Z,16.83
2017-12-16T15:52:51.832Z,18.90
2017-12-16T15:55:20.712Z,17.80
2017-12-16T16:03:23.078Z,19.45
2017-12-16T16:05:51.449Z,19.40
2017-12-16T16:08:20.382Z,17.52
2017-12-16T16:10:49.038Z,18.87
2017-12-16T16:13:17.045Z,18.52
2017-12-16T16:15:45.420Z,17.42
2017-12-16T16:18:14.093Z,18.58
2017-12-16T16:20:42.766Z,18.30
2017-12-16T16:23:11.517Z,16.85
2017-12-16T16:25:40.637Z,18.10
2017-12-16T16:28:08.680Z,18.27
2017-12-16T16:30:37.015Z,18.40
2017-12-16T16:33:05.696Z,19.35
2017-12-16T16:35:35.062Z,16.62
2017-12-16T16:38:04.174Z,16.35
2017-12-16T16:40:32.205Z,17.58
2017-12-16T16:43:00.283Z,18.60
2017-12-16T16:45:28.291Z,16.65
2017-12-16T16:47:56.977Z,17.02
2017-12-16T16:50:24.990Z,16.40
2017-12-16T16:52:53.362Z,15.85
2017-12-16T16:55:21.695Z,14.95
2017-12-16T16:57:50.805Z,14.93
2017-12-16T17:00:18.822Z,15.88
2017-12-16T17:02:47.495Z,16.87
2017-12-16T17:05:16.187Z,15.18
2017-12-16T17:07:44.533Z,15.70
2017-12-16T17:10:12.867Z,14.32
2017-12-16T17:12:41.545Z,16.87
2017-12-16T17:15:09.873Z,16.25
2017-12-16T17:17:38.567Z,17.42
2017-12-16T17:20:07.237Z,15.30
2017-12-16T17:22:37.235Z,14.75
2017-12-16T17:25:06.266Z,15.05
2017-12-16T17:27:34.615Z,15.32
2017-12-16T17:30:03.822Z,14.55
2017-12-16T17:32:33.262Z,14.68
2017-12-16T17:35:01.925Z,15.95
2017-12-16T17:37:29.980Z,17.83
2017-12-16T17:39:59.095Z,16.67
2017-12-16T17:42:28.221Z,17.00
2017-12-16T17:44:56.890Z,16.90
2017-12-16T17:47:25.219Z,16.60
2017-12-16T17:49:53.913Z,15.77
2017-12-16T17:52:22.582Z,15.95
2017-12-16T17:54:51.278Z,15.77
2017-12-16T17:57:19.964Z,16.73
2017-12-16T17:59:48.897Z,16.35
2017-12-16T18:02:17.250Z,15.65
2017-12-16T18:04:45.592Z,14.68
2017-12-16T18:07:13.633Z,15.82
2017-12-16T18:09:43.423Z,16.45
2017-12-16T18:12:12.608Z,15.38
2017-12-16T18:20:02.214Z,16.40
2017-12-16T18:22:30.911Z,15.70
2017-12-16T18:24:58.918Z,17.30
2017-12-16T18:27:28.502Z,16.25
2017-12-16T18:29:57.957Z,15.63
2017-12-16T18:32:26.627Z,17.98
2017-12-16T18:34:59.034Z,16.42
2017-12-16T18:37:27.708Z,16.25
2017-12-16T18:39:56.414Z,16.73
2017-12-16T18:42:25.078Z,16.60
2017-12-16T18:44:53.406Z,15.90
2017-12-16T18:47:22.861Z,17.80
2017-12-16T18:49:51.538Z,15.30
2017-12-16T18:52:19.909Z,16.65
2017-12-16T18:54:48.587Z,16.10
2017-12-16T18:57:18.138Z,17.58
2017-12-16T19:02:20.188Z,15.25
2017-12-16T19:04:49.808Z,17.98
2017-12-16T19:07:18.494Z,18.40
2017-12-16T19:09:47.354Z,16.35
2017-12-16T19:12:17.040Z,13.57
2017-12-16T19:17:43.714Z,13.60
2017-12-16T19:20:22.956Z,16.05
2017-12-16T19:22:51.338Z,14.23
2017-12-16T19:25:21.007Z,15.65
2017-12-16T19:27:49.677Z,16.23
2017-12-16T19:30:18.596Z,14.43
2017-12-16T19:32:47.261Z,14.95
2017-12-16T19:35:15.971Z,14.93
2017-12-16T19:37:44.633Z,14.82
2017-12-16T19:40:13.294Z,15.70
2017-12-16T19:42:41.645Z,16.25
2017-12-16T19:45:11.078Z,17.08
2017-12-16T19:47:39.446Z,16.85
2017-12-16T19:50:08.603Z,15.80
2017-12-16T19:52:37.267Z,15.07
2017-12-16T19:55:05.970Z,15.75
2017-12-16T19:57:33.975Z,14.68
2017-12-16T20:00:03.098Z,16.48
2017-12-16T20:02:31.769Z,15.63
2017-12-16T20:05:00.433Z,16.02
2017-12-16T20:07:29.143Z,14.18
2017-12-16T20:09:57.811Z,15.25
2017-12-16T20:12:26.936Z,15.20
2017-12-16T20:14:55.614Z,14.90
2017-12-16T20:17:23.978Z,14.82
2017-12-16T20:19:52.675Z,13.20
2017-12-16T20:22:21.355Z,14.70
2017-12-16T20:24:51.066Z,13.32
2017-12-16T20:27:19.753Z,13.20
2017-12-16T20:29:49.194Z,13.07
2017-12-16T20:32:17.453Z,12.88
2017-12-16T20:34:46.270Z,13.50
2017-12-16T20:37:14.979Z,12.93
2017-12-16T20:39:43.651Z,11.48
2017-12-16T20:42:12.331Z,11.68
2017-12-16T20:44:41.029Z,12.07
2017-12-16T20:47:09.037Z,11.30
2017-12-16T20:49:38.197Z,11.65
2017-12-16T20:52:06.880Z,11.68
2017-12-16T20:54:35.564Z,13.05
2017-12-16T20:57:06.349Z,12.32
2017-12-16T20:59:35.802Z,13.70
2017-12-16T21:02:04.174Z,11.57
2017-12-16T21:04:32.833Z,13.75
2017-12-16T21:07:01.505Z,12.55
2017-12-16T21:09:30.952Z,11.45
2017-12-16T21:11:59.628Z,12.50
2017-12-16T21:14:28.334Z,10.55
2017-12-16T21:16:57.455Z,14.00
2017-12-16T21:19:26.135Z,11.70
2017-12-16T21:21:54.853Z,10.98
2017-12-16T21:24:25.227Z,12.63
2017-12-16T21:26:53.931Z,10.52
2017-12-16T21:29:22.620Z,12.40
2017-12-16T21:31:51.308Z,12.25
2017-12-16T21:34:20.000Z,12.13
2017-12-16T21:36:48.678Z,13.25
2017-12-16T21:39:17.400Z,13.48
2017-12-16T21:41:46.834Z,13.88
2017-12-16T21:44:16.354Z,11.85
2017-12-16T21:46:45.057Z,12.25
2017-12-16T21:49:13.747Z,12.93
2017-12-16T21:51:42.574Z,14.00
2017-12-16T21:54:12.011Z,13.70
2017-12-16T21:56:40.685Z,13.60
2017-12-16T21:59:10.001Z,13.65
2017-12-16T22:01:38.778Z,13.40
2017-12-16T22:04:07.482Z,13.55
2017-12-16T22:06:36.167Z,12.50
2017-12-16T22:09:04.016Z,12.13
2017-12-16T22:11:32.714Z,12.48
2017-12-16T22:14:01.398Z,11.85
2017-12-16T22:16:30.090Z,13.23
2017-12-16T22:18:58.763Z,12.27
2017-12-16T22:21:27.442Z,13.05
2017-12-16T22:23:56.141Z,12.35
2017-12-16T22:26:24.824Z,13.13
2017-12-16T22:28:53.536Z,12.20
2017-12-16T22:31:22.227Z,12.88
2017-12-16T22:33:52.420Z,12.95
2017-12-16T22:36:30.249Z,11.98
2017-12-16T22:39:04.022Z,12.85
2017-12-16T22:41:46.341Z,11.95
2017-12-16T22:44:23.250Z,11.57
2017-12-16T22:49:42.538Z,13.38
2017-12-16T22:54:55.645Z,11.88
2017-12-16T22:57:24.341Z,13.65
2017-12-16T22:59:52.692Z,13.98
2017-12-16T23:02:22.602Z,11.82
2017-12-16T23:04:51.396Z,12.37
2017-12-16T23:07:24.558Z,10.23
2017-12-16T23:09:52.921Z,11.82
2017-12-16T23:12:20.933Z,10.77
2017-12-16T23:14:50.370Z,11.00
2017-12-16T23:17:18.403Z,10.80
2017-12-16T23:19:46.412Z,11.10
2017-12-16T23:22:14.454Z,9.90
2017-12-16T23:24:43.286Z,9.85
2017-12-16T23:27:13.735Z,9.20
2017-12-16T23:29:41.769Z,9.57
2017-12-16T23:32:09.778Z,10.02
2017-12-16T23:34:37.819Z,10.38
2017-12-16T23:37:05.834Z,10.75
2017-12-16T23:39:33.854Z,9.88
2017-12-16T23:42:01.874Z,9.60
2017-12-16T23:44:29.890Z,10.45
2017-12-16T23:46:58.681Z,9.40
2017-12-16T23:49:26.710Z,11.52
2017-12-16T23:51:54.585Z,11.12
2017-12-16T23:54:22.614Z,11.35
2017-12-16T23:56:50.620Z,11.30
2017-12-16T23:59:18.667Z,10.30
